createdAt,value
2023-02-13T00:01:58.692Z,34.90
2023-02-13T00:04:25.404Z,31.38
2023-02-13T00:06:52.157Z,33.95
2023-02-13T00:09:18.925Z,27.70
2023-02-13T00:11:45.575Z,25.85
2023-02-13T00:14:12.253Z,24.08
2023-02-13T00:16:38.939Z,21.65
2023-02-13T00:19:05.653Z,26.27
2023-02-13T00:21:35.323Z,21.70
2023-02-13T00:24:02.133Z,20.00
2023-02-13T00:26:28.757Z,20.50
2023-02-13T00:28:56.781Z,19.58
2023-02-13T00:31:24.793Z,16.63
2023-02-13T00:33:51.500Z,16.38
2023-02-13T00:36:20.374Z,14.73
2023-02-13T00:38:47.546Z,13.50
2023-02-13T00:41:14.398Z,13.63
2023-02-13T00:43:40.994Z,12.48
2023-02-13T00:46:07.755Z,9.25
2023-02-13T00:48:35.045Z,11.07
2023-02-13T00:51:03.729Z,10.07
2023-02-13T00:53:34.251Z,8.40
2023-02-13T00:56:00.950Z,14.30
2023-02-13T00:58:27.708Z,11.32
2023-02-13T01:00:55.546Z,12.32
2023-02-13T01:03:23.070Z,9.27
2023-02-13T01:05:50.128Z,8.05
2023-02-13T01:08:17.797Z,7.15
2023-02-13T01:10:46.365Z,8.57
2023-02-13T01:13:14.494Z,7.72
2023-02-13T01:15:41.328Z,7.07
2023-02-13T01:18:08.220Z,8.82
2023-02-13T01:20:35.218Z,7.05
2023-02-13T01:23:01.889Z,9.43
2023-02-13T01:25:28.524Z,6.47
2023-02-13T01:27:56.408Z,6.80
2023-02-13T01:30:23.101Z,11.68
2023-02-13T01:32:49.738Z,8.93
2023-02-13T01:35:16.717Z,5.70
2023-02-13T01:37:43.888Z,6.95
2023-02-13T01:40:13.156Z,7.75
2023-02-13T01:42:46.036Z,8.85
2023-02-13T01:45:23.497Z,6.32
2023-02-13T01:47:54.532Z,7.05
2023-02-13T01:50:39.156Z,7.30
2023-02-13T01:53:29.497Z,7.78
2023-02-13T01:56:12.387Z,7.72
2023-02-13T01:58:40.268Z,8.00
2023-02-13T02:01:09.034Z,5.03
2023-02-13T02:03:46.181Z,4.60
2023-02-13T02:06:33.565Z,7.22
2023-02-13T02:09:03.856Z,7.03
2023-02-13T02:11:46.567Z,4.82
2023-02-13T02:14:17.133Z,8.15
2023-02-13T02:16:43.888Z,12.75
2023-02-13T02:19:35.278Z,17.48
2023-02-13T02:22:33.320Z,18.10
2023-02-13T02:25:09.761Z,14.18
2023-02-13T02:27:51.314Z,15.45
2023-02-13T02:30:44.659Z,15.70
2023-02-13T02:33:18.894Z,17.48
2023-02-13T02:35:56.070Z,22.23
2023-02-13T02:39:03.477Z,15.88
2023-02-13T02:42:09.250Z,20.17
2023-02-13T02:44:55.757Z,14.55
2023-02-13T02:47:44.787Z,15.00
2023-02-13T02:50:31.106Z,15.45
2023-02-13T02:53:19.276Z,13.15
2023-02-13T02:56:13.058Z,12.55
2023-02-13T02:59:05.053Z,12.75
2023-02-13T03:01:56.816Z,11.65
2023-02-13T03:05:05.984Z,11.27
2023-02-13T03:07:32.780Z,14.10
2023-02-13T03:10:27.329Z,12.35
2023-02-13T03:13:21.748Z,13.75
2023-02-13T03:16:16.773Z,15.23
2023-02-13T03:19:05.803Z,14.90
2023-02-13T03:22:20.080Z,13.13
2023-02-13T03:25:05.351Z,17.77
2023-02-13T03:28:04.787Z,13.45
2023-02-13T03:30:46.829Z,15.68
2023-02-13T03:33:26.496Z,15.73
2023-02-13T03:36:36.719Z,14.93
2023-02-13T03:39:11.979Z,17.67
2023-02-13T03:41:52.995Z,13.95
2023-02-13T03:44:36.524Z,15.30
2023-02-13T03:47:04.466Z,17.60
2023-02-13T03:49:55.254Z,16.73
2023-02-13T03:52:27.482Z,16.70
2023-02-13T03:55:18.887Z,19.40
2023-02-13T03:58:06.363Z,17.15
2023-02-13T04:00:38.438Z,15.60
2023-02-13T04:03:13.024Z,19.05
2023-02-13T04:05:43.144Z,17.17
2023-02-13T04:08:09.824Z,18.95
2023-02-13T04:10:42.884Z,19.75
2023-02-13T04:13:18.578Z,18.25
2023-02-13T04:15:53.999Z,17.20
2023-02-13T04:18:23.185Z,14.82
2023-02-13T04:20:50.102Z,15.77
2023-02-13T04:23:17.274Z,16.23
2023-02-13T04:25:47.590Z,16.27
2023-02-13T04:28:14.398Z,15.07
2023-02-13T04:30:41.189Z,16.38
2023-02-13T04:33:07.868Z,15.77
2023-02-13T04:35:35.477Z,15.30
2023-02-13T04:38:02.225Z,15.82
2023-02-13T04:40:28.885Z,14.30
2023-02-13T04:42:55.636Z,14.68
2023-02-13T04:45:22.425Z,13.20
2023-02-13T04:47:53.638Z,13.70
2023-02-13T04:50:20.422Z,13.18
2023-02-13T04:52:47.319Z,14.60
2023-02-13T04:55:14.141Z,13.73
2023-02-13T04:57:40.862Z,12.57
2023-02-13T05:00:08.957Z,13.55
2023-02-13T05:02:35.658Z,10.73
2023-02-13T05:05:02.332Z,11.40
2023-02-13T05:07:29.099Z,11.07
2023-02-13T05:09:55.679Z,9.10
2023-02-13T05:12:22.333Z,8.55
2023-02-13T05:14:49.162Z,10.10
2023-02-13T05:17:15.901Z,10.05
2023-02-13T05:19:42.555Z,8.35
2023-02-13T05:22:28.477Z,10.73
2023-02-13T05:24:55.334Z,9.50
2023-02-13T05:27:21.957Z,8.10
2023-02-13T05:29:49.293Z,9.98
2023-02-13T05:32:16.034Z,7.93
2023-02-13T05:34:45.783Z,10.65
2023-02-13T05:37:12.700Z,10.23
2023-02-13T05:39:39.343Z,8.90
2023-02-13T05:42:06.110Z,9.90
2023-02-13T05:44:32.779Z,7.57
2023-02-13T05:46:59.398Z,9.48
2023-02-13T05:49:26.066Z,10.60
2023-02-13T05:51:52.705Z,9.88
2023-02-13T05:54:19.571Z,11.02
2023-02-13T05:56:47.036Z,11.88
2023-02-13T05:59:14.016Z,11.38
2023-02-13T06:01:40.664Z,9.70
2023-02-13T06:04:07.440Z,9.63
2023-02-13T06:06:34.100Z,10.38
2023-02-13T06:09:00.742Z,12.65
2023-02-13T06:11:27.396Z,10.13
2023-02-13T06:13:53.987Z,12.90
2023-02-13T06:16:20.705Z,11.27
2023-02-13T06:18:47.412Z,13.07
2023-02-13T06:21:13.991Z,10.00
2023-02-13T06:23:40.613Z,12.63
2023-02-13T06:26:08.916Z,10.38
2023-02-13T06:28:38.442Z,12.90
2023-02-13T06:31:05.375Z,11.13
2023-02-13T06:33:32.263Z,11.05
2023-02-13T06:35:58.914Z,11.27
2023-02-13T06:38:28.630Z,13.07
2023-02-13T06:41:00.284Z,14.35
2023-02-13T06:43:30.548Z,11.82
2023-02-13T06:45:57.337Z,12.05
2023-02-13T06:48:24.006Z,12.82
2023-02-13T06:50:52.279Z,12.45
2023-02-13T06:53:25.032Z,10.70
2023-02-13T06:55:56.000Z,11.70
2023-02-13T06:58:24.282Z,13.85
2023-02-13T07:00:52.287Z,11.98
2023-02-13T07:03:19.001Z,13.82
2023-02-13T07:05:45.690Z,13.73
2023-02-13T07:08:15.401Z,14.75
2023-02-13T07:10:42.317Z,13.70
2023-02-13T07:13:09.983Z,14.52
2023-02-13T07:15:37.591Z,14.18
2023-02-13T07:18:04.882Z,13.93
2023-02-13T07:20:31.555Z,15.30
2023-02-13T07:23:00.022Z,14.93
2023-02-13T07:25:27.075Z,12.80
2023-02-13T07:27:53.688Z,17.80
2023-02-13T07:30:20.397Z,18.50
2023-02-13T07:32:47.040Z,22.92
2023-02-13T07:35:13.859Z,22.02
2023-02-13T07:37:40.517Z,16.60
2023-02-13T07:40:08.004Z,20.27
2023-02-13T07:42:37.617Z,17.30
2023-02-13T07:45:06.349Z,18.42
2023-02-13T07:47:34.170Z,13.27
2023-02-13T07:50:01.721Z,14.63
2023-02-13T07:52:28.559Z,16.15
2023-02-13T07:54:55.412Z,15.18
2023-02-13T07:57:22.165Z,17.17
2023-02-13T07:59:48.810Z,16.40
2023-02-13T08:02:16.351Z,14.93
2023-02-13T08:04:46.444Z,15.27
2023-02-13T08:07:14.619Z,14.45
2023-02-13T08:10:00.005Z,16.75
2023-02-13T08:12:26.669Z,18.80
2023-02-13T08:14:53.815Z,22.10
2023-02-13T08:17:20.654Z,22.67
2023-02-13T08:19:47.455Z,21.20
2023-02-13T08:22:14.229Z,20.33
2023-02-13T08:24:41.087Z,18.60
2023-02-13T08:27:07.770Z,14.15
2023-02-13T08:29:35.010Z,13.88
2023-02-13T08:32:01.732Z,17.45
2023-02-13T08:34:28.413Z,14.98
2023-02-13T08:36:55.061Z,13.27
2023-02-13T08:39:21.735Z,12.45
2023-02-13T08:41:48.338Z,13.02
2023-02-13T08:44:14.981Z,10.73
2023-02-13T08:46:41.720Z,12.65
2023-02-13T08:49:08.574Z,12.27
2023-02-13T08:51:41.408Z,9.93
2023-02-13T08:54:09.233Z,12.75
2023-02-13T08:56:35.921Z,11.88
2023-02-13T08:59:02.702Z,12.98
2023-02-13T09:01:29.408Z,15.70
2023-02-13T09:03:56.176Z,14.60
2023-02-13T09:06:23.122Z,13.18
2023-02-13T09:08:49.776Z,13.18
2023-02-13T09:11:20.088Z,14.38
2023-02-13T09:13:48.395Z,14.07
2023-02-13T09:16:18.259Z,15.00
2023-02-13T09:18:48.162Z,14.32
2023-02-13T09:21:15.191Z,14.93
2023-02-13T09:23:41.969Z,15.35
2023-02-13T09:26:11.409Z,14.73
2023-02-13T09:28:38.654Z,14.00
2023-02-13T09:31:10.146Z,15.48
2023-02-13T09:33:37.881Z,14.70
2023-02-13T09:36:15.168Z,15.68
2023-02-13T09:38:44.251Z,15.38
2023-02-13T09:41:18.722Z,14.90
2023-02-13T09:43:52.848Z,17.85
2023-02-13T09:46:30.678Z,21.08
2023-02-13T09:49:00.234Z,18.45
2023-02-13T09:51:27.952Z,19.15
2023-02-13T09:54:03.741Z,17.83
2023-02-13T09:56:52.839Z,19.83
2023-02-13T09:59:41.697Z,15.68
2023-02-13T10:02:30.354Z,18.13
2023-02-13T10:05:08.622Z,14.23
2023-02-13T10:07:52.465Z,20.75
2023-02-13T10:10:38.527Z,17.20
2023-02-13T10:13:17.763Z,17.67
2023-02-13T10:15:52.699Z,18.77
2023-02-13T10:18:25.931Z,16.90
2023-02-13T10:20:56.005Z,19.17
2023-02-13T10:23:50.666Z,16.83
2023-02-13T10:26:22.646Z,14.73
2023-02-13T10:29:14.556Z,16.35
2023-02-13T10:31:43.611Z,17.90
2023-02-13T10:34:15.380Z,12.95
2023-02-13T10:36:45.704Z,15.45
2023-02-13T10:39:25.939Z,14.75
2023-02-13T10:42:28.178Z,16.20
2023-02-13T10:45:09.654Z,16.55
2023-02-13T10:47:54.953Z,15.18
2023-02-13T10:50:33.740Z,16.02
2023-02-13T10:53:14.516Z,16.58
2023-02-13T10:55:58.192Z,16.92
2023-02-13T10:58:44.451Z,14.88
2023-02-13T11:01:24.943Z,15.45
2023-02-13T11:04:06.112Z,15.60
2023-02-13T11:06:36.176Z,15.88
2023-02-13T11:09:02.833Z,15.45
2023-02-13T11:11:32.153Z,14.70
2023-02-13T11:14:13.987Z,15.43
2023-02-13T11:17:00.174Z,15.05
2023-02-13T11:19:33.760Z,13.27
2023-02-13T11:22:08.689Z,17.50
2023-02-13T11:24:35.652Z,14.90
2023-02-13T11:27:09.523Z,20.20
2023-02-13T11:29:38.164Z,15.25
2023-02-13T11:32:17.169Z,17.52
2023-02-13T11:34:44.161Z,14.43
2023-02-13T11:37:13.707Z,17.40
2023-02-13T11:39:41.709Z,14.18
2023-02-13T11:42:14.389Z,13.95
2023-02-13T11:44:41.931Z,17.30
2023-02-13T11:47:08.935Z,15.70
2023-02-13T11:49:39.641Z,15.32
2023-02-13T11:52:08.370Z,15.25
2023-02-13T11:54:45.308Z,18.27
2023-02-13T11:57:35.617Z,14.20
2023-02-13T12:00:29.841Z,17.00
2023-02-13T12:02:56.653Z,17.55
2023-02-13T12:05:26.489Z,14.55
2023-02-13T12:07:56.081Z,18.60
2023-02-13T12:10:29.193Z,15.25
2023-02-13T12:13:13.860Z,14.05
2023-02-13T12:15:40.874Z,16.00
2023-02-13T12:18:27.395Z,17.48
2023-02-13T12:21:01.580Z,15.60
2023-02-13T12:23:37.356Z,16.60
2023-02-13T12:26:22.910Z,14.43
2023-02-13T12:29:11.025Z,17.30
2023-02-13T12:31:40.907Z,16.02
2023-02-13T12:34:21.193Z,16.17
2023-02-13T12:37:21.845Z,16.70
2023-02-13T12:40:27.305Z,18.63
2023-02-13T12:43:04.428Z,17.58
2023-02-13T12:45:38.332Z,15.82
2023-02-13T12:48:23.751Z,17.40
2023-02-13T12:51:15.596Z,17.52
2023-02-13T12:54:14.562Z,15.02
2023-02-13T12:56:50.912Z,21.23
2023-02-13T12:59:28.679Z,17.70
2023-02-13T13:02:19.290Z,18.20
2023-02-13T13:04:56.726Z,16.38
2023-02-13T13:08:02.562Z,15.95
2023-02-13T13:10:29.139Z,16.35
2023-02-13T13:13:04.385Z,19.55
2023-02-13T13:15:50.406Z,20.38
2023-02-13T13:18:25.937Z,17.15
2023-02-13T13:21:58.805Z,20.48
2023-02-13T13:24:46.934Z,17.73
2023-02-13T13:27:21.331Z,17.88
2023-02-13T13:29:54.752Z,18.48
2023-02-13T13:32:21.887Z,18.65
2023-02-13T13:34:48.498Z,18.30
2023-02-13T13:37:38.180Z,22.80
2023-02-13T13:40:46.709Z,16.42
2023-02-13T13:43:26.069Z,19.35
2023-02-13T13:46:23.730Z,18.65
2023-02-13T13:49:28.162Z,19.02
2023-02-13T13:52:18.894Z,18.80
2023-02-13T13:54:51.513Z,19.98
2023-02-13T13:57:25.305Z,19.65
2023-02-13T13:59:56.720Z,20.45
2023-02-13T14:02:23.434Z,17.85
2023-02-13T14:05:14.923Z,17.48
2023-02-13T14:07:42.132Z,20.92
2023-02-13T14:10:20.909Z,16.67
2023-02-13T14:13:08.063Z,16.75
2023-02-13T14:15:35.009Z,16.77
2023-02-13T14:18:08.101Z,18.15
2023-02-13T14:20:52.514Z,20.92
2023-02-13T14:23:53.666Z,21.58
2023-02-13T14:26:36.652Z,19.15
2023-02-13T14:29:38.750Z,19.25
2023-02-13T14:32:13.872Z,17.17
2023-02-13T14:34:40.979Z,16.02
2023-02-13T14:37:10.602Z,20.20
2023-02-13T14:39:37.975Z,17.40
2023-02-13T14:42:22.426Z,20.23
2023-02-13T14:44:54.861Z,17.45
2023-02-13T14:47:31.809Z,17.98
2023-02-13T14:49:59.857Z,20.27
2023-02-13T14:52:29.371Z,17.13
2023-02-13T14:55:01.042Z,19.27
2023-02-13T14:57:35.076Z,16.73
2023-02-13T15:00:08.830Z,18.85
2023-02-13T15:02:46.944Z,18.83
2023-02-13T15:05:22.227Z,17.77
2023-02-13T15:07:51.519Z,16.15
2023-02-13T15:10:40.608Z,18.27
2023-02-13T15:13:15.438Z,16.83
2023-02-13T15:15:42.321Z,18.15
2023-02-13T15:18:12.135Z,22.02
2023-02-13T15:20:41.870Z,16.50
2023-02-13T15:23:26.763Z,17.73
2023-02-13T15:26:06.509Z,18.63
2023-02-13T15:28:34.599Z,16.20
2023-02-13T15:31:03.643Z,16.38
2023-02-13T15:33:47.881Z,17.27
2023-02-13T15:36:25.482Z,17.10
2023-02-13T15:39:09.814Z,17.83
2023-02-13T15:41:42.932Z,21.60
2023-02-13T15:44:36.105Z,17.23
2023-02-13T15:47:09.232Z,18.25
2023-02-13T15:49:43.530Z,18.55
2023-02-13T15:52:23.455Z,15.27
2023-02-13T15:54:52.593Z,18.50
2023-02-13T15:57:20.373Z,18.45
2023-02-13T15:59:47.740Z,15.93
2023-02-13T16:02:22.095Z,22.08
2023-02-13T16:04:52.804Z,19.23
2023-02-13T16:07:20.643Z,17.45
2023-02-13T16:09:47.516Z,18.70
2023-02-13T16:12:25.223Z,19.85
2023-02-13T16:14:55.639Z,20.13
2023-02-13T16:17:24.294Z,19.27
2023-02-13T16:19:51.082Z,17.55
2023-02-13T16:22:24.980Z,18.83
2023-02-13T16:24:54.890Z,21.20
2023-02-13T16:27:26.760Z,18.40
2023-02-13T16:30:01.466Z,16.23
2023-02-13T16:32:34.101Z,18.40
2023-02-13T16:35:29.764Z,16.77
2023-02-13T16:38:00.980Z,14.88
2023-02-13T16:40:34.021Z,15.48
2023-02-13T16:43:34.814Z,13.93
2023-02-13T16:46:13.745Z,18.15
2023-02-13T16:48:41.144Z,14.93
2023-02-13T16:51:08.207Z,16.67
2023-02-13T16:53:35.426Z,16.00
2023-02-13T16:56:05.351Z,14.82
2023-02-13T16:58:33.058Z,15.65
2023-02-13T17:01:02.050Z,13.88
2023-02-13T17:03:28.808Z,16.55
2023-02-13T17:05:55.688Z,16.52
2023-02-13T17:08:22.553Z,16.52
2023-02-13T17:11:07.685Z,17.00
2023-02-13T17:13:34.953Z,22.00
2023-02-13T17:16:01.844Z,19.75
2023-02-13T17:18:28.716Z,15.57
2023-02-13T17:20:55.427Z,18.40
2023-02-13T17:23:24.153Z,17.83
2023-02-13T17:25:53.862Z,18.02
2023-02-13T17:28:23.018Z,18.02
2023-02-13T17:30:51.672Z,18.35
2023-02-13T17:33:22.250Z,18.38
2023-02-13T17:35:49.456Z,17.10
2023-02-13T17:38:16.376Z,18.30
2023-02-13T17:40:43.916Z,18.50
2023-02-13T17:43:16.313Z,15.63
2023-02-13T17:45:43.786Z,16.33
2023-02-13T17:48:10.542Z,15.30
2023-02-13T17:50:37.937Z,16.15
2023-02-13T17:53:06.490Z,15.55
2023-02-13T17:55:34.284Z,17.27
2023-02-13T17:58:01.759Z,16.45
2023-02-13T18:00:31.463Z,20.10
2023-02-13T18:02:59.491Z,16.33
2023-02-13T18:05:26.678Z,16.20
2023-02-13T18:07:53.325Z,16.13
2023-02-13T18:10:27.841Z,17.17
2023-02-13T18:12:57.205Z,15.98
2023-02-13T18:15:24.430Z,21.02
2023-02-13T18:17:51.277Z,21.10
2023-02-13T18:20:20.794Z,14.57
2023-02-13T18:22:50.616Z,16.80
2023-02-13T18:25:18.459Z,18.02
2023-02-13T18:27:45.494Z,21.38
2023-02-13T18:30:14.505Z,17.45
2023-02-13T18:32:41.799Z,19.02
2023-02-13T18:35:09.676Z,17.77
2023-02-13T18:37:36.632Z,18.80
2023-02-13T18:40:03.352Z,22.63
2023-02-13T18:42:30.089Z,20.98
2023-02-13T18:44:56.761Z,20.35
2023-02-13T18:47:23.413Z,21.02
2023-02-13T18:49:50.048Z,21.42
2023-02-13T18:52:16.717Z,21.27
2023-02-13T18:54:43.434Z,21.17
2023-02-13T18:57:10.156Z,19.17
2023-02-13T18:59:36.888Z,17.88
2023-02-13T19:02:04.335Z,18.38
2023-02-13T19:04:31.612Z,16.40
2023-02-13T19:06:58.534Z,18.63
2023-02-13T19:09:25.317Z,18.98
2023-02-13T19:11:51.999Z,16.90
2023-02-13T19:14:18.753Z,18.88
2023-02-13T19:16:45.604Z,18.90
2023-02-13T19:19:12.533Z,20.30
2023-02-13T19:21:42.428Z,17.95
2023-02-13T19:24:11.897Z,21.38
2023-02-13T19:26:41.714Z,18.08
2023-02-13T19:29:08.468Z,19.17
2023-02-13T19:31:38.531Z,17.17
2023-02-13T19:34:05.889Z,20.08
2023-02-13T19:36:32.725Z,19.27
2023-02-13T19:39:03.478Z,20.75
2023-02-13T19:41:30.940Z,17.15
2023-02-13T19:43:57.655Z,19.02
2023-02-13T19:46:27.008Z,16.05
2023-02-13T19:48:54.114Z,19.40
2023-02-13T19:51:27.830Z,20.92
2023-02-13T19:54:08.112Z,23.10
2023-02-13T19:56:37.590Z,19.70
2023-02-13T19:59:05.259Z,22.42
2023-02-13T20:01:32.120Z,24.58
2023-02-13T20:03:59.250Z,24.35
2023-02-13T20:06:28.366Z,23.45
2023-02-13T20:08:58.127Z,21.85
2023-02-13T20:11:25.287Z,22.52
2023-02-13T20:13:56.821Z,24.27
2023-02-13T20:16:24.006Z,22.10
2023-02-13T20:18:50.810Z,21.45
2023-02-13T20:21:18.019Z,25.25
2023-02-13T20:23:48.940Z,20.77
2023-02-13T20:26:16.808Z,22.73
2023-02-13T20:28:44.596Z,20.40
2023-02-13T20:31:16.603Z,23.63
2023-02-13T20:33:44.133Z,22.63
2023-02-13T20:36:18.892Z,27.98
2023-02-13T20:38:45.951Z,21.38
2023-02-13T20:41:15.464Z,22.27
2023-02-13T20:43:43.411Z,24.80
2023-02-13T20:46:10.756Z,24.13
2023-02-13T20:48:39.020Z,22.15
2023-02-13T20:51:08.049Z,26.17
2023-02-13T20:53:35.644Z,25.77
2023-02-13T20:56:08.421Z,24.23
2023-02-13T20:58:35.324Z,23.08
2023-02-13T21:01:02.487Z,26.67
2023-02-13T21:03:30.630Z,25.20
2023-02-13T21:05:57.332Z,25.02
2023-02-13T21:08:24.086Z,25.63
2023-02-13T21:10:50.774Z,23.77
2023-02-13T21:13:17.650Z,23.88
2023-02-13T21:15:48.284Z,25.88
2023-02-13T21:18:16.009Z,25.13
2023-02-13T21:20:42.762Z,25.67
2023-02-13T21:23:09.499Z,33.05
2023-02-13T21:25:36.550Z,26.15
2023-02-13T21:28:03.478Z,29.80
2023-02-13T21:30:30.317Z,28.02
2023-02-13T21:32:57.104Z,26.52
2023-02-13T21:35:24.058Z,29.88
2023-02-13T21:37:50.733Z,28.00
2023-02-13T21:40:17.821Z,30.73
2023-02-13T21:42:44.702Z,29.73
2023-02-13T21:45:14.403Z,27.52
2023-02-13T21:47:41.060Z,26.92
2023-02-13T21:50:08.248Z,25.17
2023-02-13T21:52:35.399Z,30.35
2023-02-13T21:55:02.631Z,30.10
2023-02-13T21:57:29.259Z,27.02
2023-02-13T21:59:57.271Z,27.63
2023-02-13T22:02:27.045Z,28.42
2023-02-13T22:04:56.245Z,27.23
2023-02-13T22:07:23.358Z,24.90
2023-02-13T22:09:50.517Z,29.55
2023-02-13T22:12:17.147Z,29.40
2023-02-13T22:14:43.898Z,28.17
2023-02-13T22:17:10.668Z,27.45
2023-02-13T22:19:37.380Z,32.72
2023-02-13T22:22:04.149Z,26.83
2023-02-13T22:24:30.887Z,30.55
2023-02-13T22:27:00.818Z,28.77
2023-02-13T22:29:27.655Z,25.38
2023-02-13T22:31:54.450Z,30.30
2023-02-13T22:34:21.183Z,29.30
2023-02-13T22:36:47.822Z,33.53
2023-02-13T22:39:14.519Z,30.85
2023-02-13T22:41:41.486Z,28.75
2023-02-13T22:44:08.209Z,28.05
2023-02-13T22:46:35.153Z,30.95
2023-02-13T22:49:02.169Z,33.20
2023-02-13T22:51:32.234Z,30.42
2023-02-13T22:53:59.744Z,32.17
2023-02-13T22:56:27.669Z,28.65
2023-02-13T22:58:54.427Z,34.97
2023-02-13T23:01:23.286Z,28.90
2023-02-13T23:03:50.790Z,33.58
2023-02-13T23:06:17.978Z,28.58
2023-02-13T23:08:45.095Z,29.88
2023-02-13T23:11:33.370Z,33.83
2023-02-13T23:14:00.213Z,31.35
2023-02-13T23:16:27.254Z,29.67
2023-02-13T23:18:55.476Z,30.35
2023-02-13T23:21:22.454Z,32.97
2023-02-13T23:23:49.242Z,32.63
2023-02-13T23:26:16.057Z,29.00
2023-02-13T23:28:48.822Z,35.65
2023-02-13T23:31:15.998Z,31.20
2023-02-13T23:33:45.837Z,32.08
2023-02-13T23:36:12.694Z,28.60
2023-02-13T23:38:39.335Z,30.40
2023-02-13T23:41:10.027Z,33.97
2023-02-13T23:43:36.802Z,29.88
2023-02-13T23:46:04.807Z,30.73
2023-02-13T23:48:31.890Z,30.30
2023-02-13T23:50:58.973Z,30.42
2023-02-13T23:53:25.906Z,27.17
2023-02-13T23:55:52.642Z,29.15
2023-02-13T23:58:19.290Z,27.73
